Time;durP1;ratioP1;P1;durP2;ratioP2;P2;SDS_P1;SDS_P2;PMS_P1;PMS_P2;Temp;Humidity;BMP_temperature;BMP_pressure;BME280_temperature;BME280_humidity;BME280_pressure;Samples;Min_cycle;Max_cycle;Signal;HPM_P1;HPM_P2
2022/02/11 00:01:11;;;;;;;6.47;3.20;;;7.60;99.90;;;;;;4964656;28;20461;-71
2022/02/11 00:06:56;;;;;;;5.95;3.03;;;7.60;99.90;;;;;;4960796;28;20024;-79
2022/02/11 00:09:22;;;;;;;7.30;3.03;;;7.60;99.90;;;;;;4961867;28;20023;-83
2022/02/11 00:11:48;;;;;;;6.40;3.58;;;7.60;99.90;;;;;;4961415;28;20034;-81
2022/02/11 00:14:14;;;;;;;7.07;3.77;;;7.50;99.90;;;;;;4970068;28;20031;-81
2022/02/11 00:16:40;;;;;;;9.57;3.80;;;7.50;99.90;;;;;;4957790;28;20034;-81
2022/02/11 00:19:06;;;;;;;8.02;3.80;;;7.40;99.90;;;;;;4966166;28;20465;-81
2022/02/11 00:21:33;;;;;;;7.40;3.67;;;7.40;99.90;;;;;;4966834;28;20444;-80
2022/02/11 00:23:59;;;;;;;6.70;3.40;;;7.40;99.90;;;;;;4962708;28;20055;-80
2022/02/11 00:26:31;;;;;;;8.60;3.83;;;7.40;99.90;;;;;;4974101;28;20494;-80
2022/02/11 00:34:07;;;;;;;6.80;3.80;;;7.40;99.90;;;;;;4973700;28;20126;-80
2022/02/11 00:36:41;;;;;;;6.67;3.50;;;7.40;99.90;;;;;;4964668;28;20122;-80
2022/02/11 01:06:15;;;;;;;7.33;3.67;;;7.40;99.90;;;;;;4959184;28;20031;-89
2022/02/11 01:08:41;;;;;;;7.70;3.80;;;7.40;99.90;;;;;;4958103;29;20023;-89
2022/02/11 01:11:14;;;;;;;6.85;3.80;;;7.30;99.90;;;;;;4957841;28;20030;-90
2022/02/11 01:13:40;;;;;;;9.10;3.87;;;7.40;99.90;;;;;;4957912;29;20027;-90
2022/02/11 01:16:11;;;;;;;6.70;3.77;;;7.40;99.90;;;;;;4957504;29;20118;-89
2022/02/11 01:18:38;;;;;;;8.13;3.47;;;7.40;99.90;;;;;;4958233;29;20038;-90
2022/02/11 01:21:09;;;;;;;8.17;3.70;;;7.40;99.90;;;;;;4957465;28;20211;-89
2022/02/11 01:23:52;;;;;;;6.60;3.60;;;7.40;99.90;;;;;;4957548;28;20047;-89
2022/02/11 01:26:47;;;;;;;8.50;4.00;;;7.40;99.90;;;;;;4957881;29;20031;-86
2022/02/11 01:29:48;;;;;;;8.35;3.70;;;7.40;99.90;;;;;;4957883;29;20471;-86
2022/02/11 01:56:33;;;;;;;6.13;3.33;;;7.10;99.90;;;;;;4918221;29;20051;-87
2022/02/11 01:59:38;;;;;;;6.77;3.37;;;7.10;99.90;;;;;;4917543;29;20044;-86
2022/02/11 02:11:21;;;;;;;6.87;3.53;;;7.00;99.90;;;;;;4899856;29;20036;-90
2022/02/11 03:48:53;;;;;;;1.30;0.57;;;5.70;99.90;;;;;;4956220;29;20042;-88
2022/02/11 04:21:20;;;;;;;1.13;0.60;;;5.90;99.90;;;;;;4955731;29;20376;-86
2022/02/11 04:24:56;;;;;;;3.57;0.50;;;5.90;99.90;;;;;;4957491;29;20082;-90
2022/02/11 04:56:29;;;;;;;2.67;0.83;;;5.60;99.90;;;;;;4958426;29;20067;-90
2022/02/11 05:01:41;;;;;;;2.00;0.60;;;5.50;99.90;;;;;;4959943;29;20037;-88
2022/02/11 05:04:07;;;;;;;2.43;0.60;;;5.50;99.90;;;;;;4957864;28;20372;-90
2022/02/11 05:06:32;;;;;;;1.27;0.70;;;5.40;99.90;;;;;;4959702;28;20034;-88
2022/02/11 05:09:02;;;;;;;1.80;0.70;;;5.40;99.90;;;;;;4959180;28;20031;-87
2022/02/11 05:11:29;;;;;;;1.13;0.47;;;5.40;99.90;;;;;;4958258;28;20463;-85
2022/02/11 05:13:55;;;;;;;2.33;0.37;;;5.40;99.90;;;;;;4959121;28;20054;-87
2022/02/11 05:16:20;;;;;;;1.47;0.40;;;5.40;99.90;;;;;;4961152;29;20094;-90
2022/02/11 05:18:46;;;;;;;0.73;0.40;;;5.40;99.90;;;;;;4963115;28;20027;-90
2022/02/11 05:21:12;;;;;;;2.10;0.50;;;5.30;99.90;;;;;;4961298;29;20078;-89
2022/02/11 05:23:38;;;;;;;0.73;0.40;;;5.30;99.90;;;;;;4961984;28;20456;-89
2022/02/11 05:26:03;;;;;;;2.87;0.70;;;5.30;99.90;;;;;;4959552;28;20031;-83
2022/02/11 05:28:29;;;;;;;1.00;0.47;;;5.30;99.90;;;;;;4957827;28;20023;-83
2022/02/11 05:30:55;;;;;;;0.83;0.47;;;5.30;99.90;;;;;;4958558;29;20026;-85
2022/02/11 05:33:21;;;;;;;2.53;0.50;;;5.20;99.90;;;;;;4958351;29;20034;-85
2022/02/11 05:35:47;;;;;;;0.47;0.40;;;5.20;99.90;;;;;;4958569;29;20054;-85
2022/02/11 05:38:12;;;;;;;1.90;0.50;;;5.20;99.90;;;;;;4957769;29;20114;-85
2022/02/11 05:40:38;;;;;;;1.87;0.80;;;5.10;99.90;;;;;;4957781;28;20086;-85
2022/02/11 05:43:04;;;;;;;0.73;0.50;;;5.10;99.90;;;;;;4957015;29;20028;-86
2022/02/11 05:45:30;;;;;;;0.40;0.33;;;5.00;99.90;;;;;;4957523;29;20019;-87
2022/02/11 05:47:56;;;;;;;0.80;0.57;;;4.90;99.90;;;;;;4958176;29;20396;-88
2022/02/11 05:50:22;;;;;;;2.40;1.67;;;4.90;99.90;;;;;;4957750;28;20023;-87
2022/02/11 05:52:47;;;;;;;1.40;0.50;;;4.80;99.90;;;;;;4959477;28;20107;-88
2022/02/11 05:55:13;;;;;;;3.23;0.93;;;4.90;99.90;;;;;;4958152;28;20473;-89
2022/02/11 05:57:38;;;;;;;1.50;0.80;;;4.90;99.90;;;;;;4960993;29;20029;-88
2022/02/11 06:00:05;;;;;;;0.87;0.50;;;4.90;99.90;;;;;;4960410;28;20058;-88
2022/02/11 06:02:31;;;;;;;1.03;0.53;;;4.90;99.90;;;;;;4958015;28;20118;-88
2022/02/11 06:04:56;;;;;;;2.00;0.57;;;4.90;99.90;;;;;;4958067;28;20495;-88
2022/02/11 06:07:22;;;;;;;1.40;0.53;;;4.80;99.90;;;;;;4957729;28;20117;-89
2022/02/11 06:09:48;;;;;;;2.27;0.80;;;4.70;99.90;;;;;;4958259;29;20113;-87
2022/02/11 06:12:14;;;;;;;2.20;0.83;;;4.70;99.90;;;;;;4958706;28;20061;-87
2022/02/11 06:14:41;;;;;;;1.13;0.77;;;4.70;99.90;;;;;;4959870;29;20034;-87
2022/02/11 06:17:07;;;;;;;1.73;0.70;;;4.70;99.90;;;;;;4957096;28;20511;-87
2022/02/11 06:19:33;;;;;;;3.57;0.90;;;4.50;99.90;;;;;;4956208;28;20027;-87
2022/02/11 06:21:59;;;;;;;6.10;1.00;;;4.50;99.90;;;;;;4957289;28;20035;-86
2022/02/11 06:24:24;;;;;;;2.27;0.93;;;4.50;99.90;;;;;;4956771;28;20079;-87
2022/02/11 06:26:50;;;;;;;2.27;1.03;;;4.50;99.90;;;;;;4957086;28;20060;-87
2022/02/11 06:29:16;;;;;;;3.17;0.80;;;4.50;99.90;;;;;;4957526;29;20078;-86
2022/02/11 06:31:42;;;;;;;1.43;0.97;;;4.50;99.90;;;;;;4959579;29;20027;-88
2022/02/11 06:34:07;;;;;;;3.20;1.10;;;4.50;99.90;;;;;;4958904;28;20027;-87
2022/02/11 06:36:34;;;;;;;2.23;0.93;;;4.50;99.90;;;;;;4960018;28;20031;-91
2022/02/11 06:39:00;;;;;;;3.00;0.80;;;4.50;99.90;;;;;;4962932;29;20027;-90
2022/02/11 06:41:27;;;;;;;2.33;0.70;;;4.40;99.90;;;;;;4961148;28;20096;-92
2022/02/11 06:43:52;;;;;;;1.33;0.90;;;4.40;99.90;;;;;;4962951;28;20031;-91
2022/02/11 06:46:21;;;;;;;3.83;0.83;;;4.30;99.90;;;;;;4966542;28;20089;-92
2022/02/11 06:48:48;;;;;;;2.03;0.70;;;4.20;99.90;;;;;;4966092;28;20023;-91
2022/02/11 06:51:14;;;;;;;2.30;1.10;;;4.30;99.90;;;;;;4960437;28;20027;-90
2022/02/11 06:53:40;;;;;;;2.80;0.93;;;4.30;99.90;;;;;;4961334;28;20029;-90
2022/02/11 06:56:06;;;;;;;2.43;1.10;;;4.40;99.90;;;;;;4960133;28;20138;-91
2022/02/11 06:58:35;;;;;;;4.03;1.40;;;4.30;99.90;;;;;;4958959;28;20055;-85
2022/02/11 07:01:01;;;;;;;3.83;1.40;;;4.30;99.90;;;;;;4959384;28;20019;-90
2022/02/11 07:03:27;;;;;;;2.13;1.20;;;4.40;99.90;;;;;;4961517;28;20019;-90
2022/02/11 07:05:54;;;;;;;4.27;1.47;;;4.30;99.90;;;;;;4966042;28;20031;-91
2022/02/11 07:08:20;;;;;;;1.93;1.20;;;4.30;99.90;;;;;;4966327;28;20019;-90
2022/02/11 07:10:45;;;;;;;1.87;1.17;;;4.40;99.90;;;;;;4959337;28;20034;-86
2022/02/11 07:13:13;;;;;;;2.53;0.93;;;4.40;99.90;;;;;;4956769;28;20078;-85
2022/02/11 07:15:44;;;;;;;3.10;1.33;;;4.40;99.90;;;;;;4958491;28;20038;-86
2022/02/11 07:18:11;;;;;;;5.00;1.03;;;4.50;99.90;;;;;;4958749;28;20027;-85
2022/02/11 07:20:38;;;;;;;2.20;0.90;;;4.50;99.90;;;;;;4959079;28;20159;-85
2022/02/11 07:23:04;;;;;;;3.53;1.10;;;4.50;99.90;;;;;;4961700;28;20047;-87
2022/02/11 07:25:29;;;;;;;2.00;1.03;;;4.60;99.90;;;;;;4958516;28;20062;-85
2022/02/11 07:27:55;;;;;;;2.37;1.20;;;4.60;99.90;;;;;;4957800;28;20432;-85
2022/02/11 07:30:21;;;;;;;6.37;1.43;;;4.50;99.90;;;;;;4965275;28;20049;-86
2022/02/11 07:32:48;;;;;;;3.17;1.20;;;4.50;99.90;;;;;;4978345;28;20027;-87
2022/02/11 07:35:13;;;;;;;4.13;1.50;;;4.50;99.90;;;;;;4972245;28;20066;-89
2022/02/11 07:37:39;;;;;;;6.83;1.53;;;4.50;99.90;;;;;;4971261;28;20365;-89
2022/02/11 07:40:05;;;;;;;4.43;1.30;;;4.50;99.90;;;;;;4963074;28;20366;-90
2022/02/11 07:42:33;;;;;;;3.10;1.50;;;4.50;99.90;;;;;;4958220;28;20034;-85
2022/02/11 07:44:59;;;;;;;3.70;1.43;;;4.40;99.90;;;;;;4957348;28;20042;-86
2022/02/11 07:47:26;;;;;;;3.23;1.60;;;4.30;99.90;;;;;;4955864;29;20031;-85
2022/02/11 07:49:54;;;;;;;7.40;2.27;;;4.30;99.90;;;;;;4955768;29;20027;-83
2022/02/11 07:52:20;;;;;;;7.10;1.90;;;4.30;99.90;;;;;;4956363;28;20059;-83
2022/02/11 07:54:45;;;;;;;7.00;1.80;;;4.30;99.90;;;;;;4959173;28;20039;-87
2022/02/11 07:57:11;;;;;;;4.03;1.70;;;4.20;99.90;;;;;;4958949;28;20118;-88
2022/02/11 07:59:38;;;;;;;4.57;1.70;;;4.30;99.90;;;;;;4960075;29;20544;-87
2022/02/11 08:02:05;;;;;;;4.43;2.03;;;4.20;99.90;;;;;;4959255;28;20028;-89
2022/02/11 08:04:32;;;;;;;6.87;2.23;;;4.20;99.90;;;;;;4960754;28;20031;-88
2022/02/11 08:06:58;;;;;;;4.70;1.80;;;4.30;99.90;;;;;;4963606;28;20028;-90
2022/02/11 08:09:23;;;;;;;7.20;2.10;;;4.30;99.90;;;;;;4957749;28;20109;-83
2022/02/11 08:11:49;;;;;;;7.80;2.30;;;4.30;99.90;;;;;;4958774;28;20084;-88
2022/02/11 08:14:15;;;;;;;6.77;2.27;;;4.30;99.90;;;;;;4958996;28;20035;-87
2022/02/11 08:16:40;;;;;;;6.93;2.10;;;4.30;99.90;;;;;;4957432;29;20043;-85
2022/02/11 08:19:06;;;;;;;4.90;2.00;;;4.30;99.90;;;;;;4956984;28;20457;-84
2022/02/11 08:21:33;;;;;;;6.47;2.07;;;4.30;99.90;;;;;;4957352;28;20027;-85
2022/02/11 08:24:00;;;;;;;6.10;2.10;;;4.40;99.90;;;;;;4957345;28;20055;-83
2022/02/11 08:26:29;;;;;;;5.93;2.37;;;4.30;99.90;;;;;;4940732;29;20047;-85
2022/02/11 08:28:56;;;;;;;10.67;2.03;;;4.40;99.90;;;;;;4957115;28;20122;-85
2022/02/11 08:31:22;;;;;;;5.50;2.00;;;4.40;99.90;;;;;;4956641;28;20118;-86
2022/02/11 08:33:49;;;;;;;8.53;2.43;;;4.40;99.90;;;;;;4956148;29;20054;-84
2022/02/11 08:36:15;;;;;;;7.73;2.23;;;4.40;99.90;;;;;;4954832;29;20103;-85
2022/02/11 08:38:41;;;;;;;4.77;2.10;;;4.40;99.90;;;;;;4955067;29;20464;-86
2022/02/11 08:41:07;;;;;;;6.07;2.50;;;4.40;99.90;;;;;;4954633;28;20031;-85
2022/02/11 08:43:33;;;;;;;7.00;2.17;;;4.50;99.90;;;;;;4957633;28;20027;-86
2022/02/11 08:45:59;;;;;;;5.53;2.23;;;4.60;99.90;;;;;;4958436;29;20042;-85
2022/02/11 08:48:25;;;;;;;6.77;2.90;;;4.70;99.90;;;;;;4957776;28;20055;-85
2022/02/11 08:50:51;;;;;;;6.90;2.40;;;4.80;99.90;;;;;;4958050;29;20166;-88
2022/02/11 08:53:17;;;;;;;5.70;2.70;;;4.90;99.90;;;;;;4957767;29;20027;-88
2022/02/11 08:55:43;;;;;;;7.63;2.27;;;5.00;99.90;;;;;;4958365;28;20046;-89
2022/02/11 08:58:08;;;;;;;5.53;2.53;;;5.00;99.90;;;;;;4958447;28;20110;-87
2022/02/11 09:00:34;;;;;;;8.20;2.63;;;5.10;99.90;;;;;;4957733;28;20031;-83
2022/02/11 09:03:00;;;;;;;6.30;2.37;;;5.00;99.90;;;;;;4958054;28;20424;-83
2022/02/11 09:05:27;;;;;;;7.67;2.73;;;5.00;99.90;;;;;;4958014;29;20031;-84
2022/02/11 09:07:58;;;;;;;6.83;2.60;;;5.00;99.90;;;;;;4957902;29;20098;-88
2022/02/11 09:10:28;;;;;;;6.87;2.30;;;4.90;99.90;;;;;;4957445;29;20023;-86
2022/02/11 09:13:00;;;;;;;7.77;2.77;;;4.80;99.90;;;;;;4958778;28;20027;-86
2022/02/11 09:15:27;;;;;;;;;;;4.80;99.90;;;;;;4957676;28;20043;-87
2022/02/11 09:17:54;;;;;;;6.93;2.80;;;4.90;99.90;;;;;;4958895;28;19993;-87
2022/02/11 09:20:20;;;;;;;9.23;3.07;;;4.90;99.90;;;;;;4957276;28;20038;-87
2022/02/11 09:22:47;;;;;;;8.57;3.40;;;5.00;99.90;;;;;;4958104;29;20034;-89
2022/02/11 09:25:13;;;;;;;8.17;2.73;;;5.00;99.90;;;;;;4957926;28;20058;-89
2022/02/11 09:27:46;;;;;;;6.03;2.87;;;5.10;99.90;;;;;;4957960;28;20063;-91
2022/02/11 09:30:20;;;;;;;6.97;2.90;;;5.00;99.90;;;;;;4958247;28;20081;-88
2022/02/11 09:32:52;;;;;;;6.80;2.83;;;5.00;99.90;;;;;;4958263;29;20469;-90
2022/02/11 09:35:19;;;;;;;8.70;2.67;;;5.00;99.90;;;;;;4957748;29;20035;-90
2022/02/11 09:37:45;;;;;;;8.20;2.80;;;5.00;99.90;;;;;;4958067;28;20055;-86
2022/02/11 09:40:13;;;;;;;7.37;3.27;;;5.00;99.90;;;;;;4958225;28;20034;-90
2022/02/11 09:42:39;;;;;;;8.30;3.03;;;5.00;99.90;;;;;;4976393;28;20041;-87
2022/02/11 09:45:06;;;;;;;7.07;3.00;;;5.10;99.90;;;;;;4977091;28;20030;-89
2022/02/11 09:47:36;;;;;;;6.33;2.80;;;5.10;99.90;;;;;;4977583;28;20031;-90
2022/02/11 09:50:03;;;;;;;8.37;2.57;;;5.20;99.90;;;;;;4976741;28;20023;-88
2022/02/11 09:52:38;;;;;;;6.00;2.60;;;5.30;99.90;;;;;;4973456;28;20122;-92
2022/02/11 09:57:50;;;;;;;9.00;2.70;;;5.60;99.90;;;;;;4958408;29;20050;-87
2022/02/11 10:00:16;;;;;;;6.83;3.03;;;5.70;99.90;;;;;;4958132;28;20027;-86
2022/02/11 10:03:12;;;;;;;10.67;3.20;;;5.70;99.90;;;;;;4972543;28;20065;-87
2022/02/11 10:05:37;;;;;;;6.80;2.53;;;5.70;99.90;;;;;;4966644;28;20507;-88
2022/02/11 10:08:03;;;;;;;6.87;3.17;;;5.60;99.90;;;;;;4965396;28;20027;-85
2022/02/11 10:10:40;;;;;;;7.47;3.20;;;5.60;99.90;;;;;;4964353;28;20035;-84
2022/02/11 10:13:06;;;;;;;7.53;2.67;;;5.60;99.90;;;;;;4965115;28;20024;-88
2022/02/11 10:15:34;;;;;;;9.77;3.20;;;5.50;99.90;;;;;;4968622;28;20031;-86
2022/02/11 10:18:01;;;;;;;6.67;2.80;;;5.60;99.90;;;;;;4967705;28;20023;-87
2022/02/11 10:20:29;;;;;;;10.47;3.40;;;5.50;99.90;;;;;;4966430;28;20019;-86
2022/02/11 10:23:12;;;;;;;9.27;3.20;;;5.50;99.90;;;;;;4965889;28;20134;-87
2022/02/11 10:25:57;;;;;;;6.57;2.47;;;5.50;99.90;;;;;;4967000;28;20066;-85
2022/02/11 10:28:37;;;;;;;9.50;3.30;;;5.50;99.90;;;;;;4956269;28;20126;-88
2022/02/11 10:31:23;;;;;;;7.20;2.67;;;5.50;99.90;;;;;;4959783;29;20046;-89
2022/02/11 10:34:09;;;;;;;9.30;2.83;;;5.60;99.90;;;;;;4958865;29;20165;-87
2022/02/11 10:36:39;;;;;;;7.63;2.97;;;5.60;99.90;;;;;;4965009;28;20034;-84
2022/02/11 10:39:12;;;;;;;7.70;2.60;;;5.60;99.90;;;;;;4977430;28;20038;-87
2022/02/11 10:41:46;;;;;;;10.50;3.10;;;5.60;99.90;;;;;;4976692;28;20472;-84
2022/02/11 10:44:12;;;;;;;8.13;2.77;;;5.60;99.90;;;;;;4976356;28;20388;-82
2022/02/11 10:46:53;;;;;;;7.07;2.87;;;5.60;99.90;;;;;;4965039;28;20039;-82
2022/02/11 10:49:33;;;;;;;5.50;2.37;;;5.60;99.90;;;;;;4974988;28;20064;-85
2022/02/11 10:52:33;;;;;;;7.33;2.57;;;5.70;99.90;;;;;;4975682;28;20037;-85
2022/02/11 10:54:58;;;;;;;8.33;2.93;;;5.80;99.90;;;;;;4958257;28;20059;-89
2022/02/11 10:57:31;;;;;;;9.27;2.63;;;5.80;99.90;;;;;;4973259;28;20042;-91
2022/02/11 11:00:01;;;;;;;7.83;2.80;;;5.90;99.90;;;;;;4975491;28;20460;-88
2022/02/11 11:02:26;;;;;;;5.27;2.83;;;5.90;99.90;;;;;;4976340;28;20491;-84
2022/02/11 11:04:55;;;;;;;6.17;2.70;;;5.90;99.90;;;;;;4959719;28;20117;-81
2022/02/11 11:07:25;;;;;;;8.33;2.70;;;5.80;99.90;;;;;;4971870;28;20031;-84
2022/02/11 11:09:53;;;;;;;9.23;2.83;;;5.80;99.90;;;;;;4959371;28;20035;-86
2022/02/11 11:12:23;;;;;;;8.40;3.10;;;5.80;99.90;;;;;;4972467;28;20038;-87
2022/02/11 11:14:54;;;;;;;8.37;2.97;;;5.80;99.90;;;;;;4968829;28;20527;-84
2022/02/11 11:17:21;;;;;;;10.57;2.60;;;5.80;99.90;;;;;;4965186;28;20031;-86
2022/02/11 11:19:49;;;;;;;6.63;2.67;;;5.70;99.90;;;;;;4965623;28;20035;-85
2022/02/11 11:22:24;;;;;;;5.83;2.73;;;5.70;99.90;;;;;;4962573;28;20034;-82
2022/02/11 11:25:08;;;;;;;9.00;2.63;;;5.70;99.90;;;;;;4959194;28;20054;-82
2022/02/11 11:27:40;;;;;;;9.17;3.03;;;5.70;99.90;;;;;;4975497;28;20039;-87
2022/02/11 11:30:32;;;;;;;9.03;2.60;;;5.70;99.90;;;;;;4976112;28;20507;-85
2022/02/11 11:33:23;;;;;;;6.07;2.70;;;5.80;99.90;;;;;;4960852;28;20026;-88
2022/02/11 11:35:49;;;;;;;7.03;2.33;;;5.80;99.90;;;;;;4963865;28;20038;-89
2022/02/11 11:38:21;;;;;;;6.73;2.67;;;5.70;99.90;;;;;;4969533;28;20019;-87
2022/02/11 11:41:12;;;;;;;9.40;2.40;;;5.80;99.90;;;;;;4967700;28;20056;-86
2022/02/11 11:44:15;;;;;;;6.27;2.53;;;5.80;99.90;;;;;;4965264;28;20031;-86
2022/02/11 11:46:51;;;;;;;5.87;2.13;;;5.80;99.90;;;;;;4962185;28;20027;-87
2022/02/11 11:49:21;;;;;;;6.70;2.40;;;5.80;99.90;;;;;;4968466;28;20473;-87
2022/02/11 11:51:47;;;;;;;9.90;2.50;;;5.90;99.90;;;;;;4963958;28;20030;-77
2022/02/11 11:54:20;;;;;;;5.80;2.20;;;5.90;99.90;;;;;;4968148;28;20038;-80
2022/02/11 11:57:07;;;;;;;4.10;1.77;;;6.00;99.90;;;;;;4957258;28;20054;-82
2022/02/11 11:59:45;;;;;;;6.20;2.27;;;6.00;99.90;;;;;;4965205;28;20420;-81
2022/02/11 12:02:40;;;;;;;6.07;2.63;;;6.00;99.90;;;;;;4959476;28;20028;-82
2022/02/11 12:05:06;;;;;;;6.87;2.20;;;6.00;99.90;;;;;;4958110;28;20042;-79
2022/02/11 12:07:34;;;;;;;6.93;2.47;;;6.00;99.90;;;;;;4964393;28;20494;-80
2022/02/11 12:10:04;;;;;;;3.37;2.03;;;6.00;99.90;;;;;;4966238;28;20054;-79
2022/02/11 12:12:33;;;;;;;4.90;2.20;;;6.00;99.90;;;;;;4957059;28;20086;-79
2022/02/11 12:15:07;;;;;;;11.50;3.23;;;6.10;99.90;;;;;;4969092;28;20035;-79
2022/02/11 12:17:33;;;;;;;9.07;2.90;;;6.10;99.90;;;;;;4955470;28;20038;-79
2022/02/11 12:19:59;;;;;;;8.73;3.10;;;6.10;99.90;;;;;;4958060;28;20036;-82
2022/02/11 12:22:27;;;;;;;7.50;2.90;;;6.10;99.90;;;;;;4972771;28;20081;-79
2022/02/11 12:27:42;;;;;;;3.93;2.80;;;6.20;99.90;;;;;;4959212;29;20581;-79
2022/02/11 12:30:25;;;;;;;9.03;2.43;;;6.00;99.90;;;;;;4958069;28;20027;-79
2022/02/11 12:32:57;;;;;;;5.00;2.47;;;6.00;99.90;;;;;;4974174;28;20077;-79
2022/02/11 12:35:32;;;;;;;4.70;2.80;;;6.10;99.90;;;;;;4957256;29;20035;-79
2022/02/11 12:38:00;;;;;;;8.90;2.70;;;6.20;99.90;;;;;;4969735;28;20031;-81
2022/02/11 12:40:35;;;;;;;6.23;2.50;;;6.20;99.90;;;;;;4980531;28;20029;-79
2022/02/11 12:43:04;;;;;;;8.40;2.73;;;6.30;99.90;;;;;;4996787;28;20022;-80
2022/02/11 12:45:40;;;;;;;7.40;2.80;;;6.40;99.90;;;;;;4984999;28;20023;-80
2022/02/11 12:48:13;;;;;;;6.37;2.00;;;6.60;99.90;;;;;;4970896;28;20066;-79
2022/02/11 12:50:42;;;;;;;6.20;2.17;;;6.70;99.90;;;;;;4960520;28;20380;-79
2022/02/11 12:53:09;;;;;;;9.97;2.70;;;7.00;99.80;;;;;;4977774;28;20029;-80
2022/02/11 12:55:36;;;;;;;6.87;2.10;;;7.10;99.60;;;;;;4976678;28;20027;-80
2022/02/11 12:58:08;;;;;;;7.17;1.93;;;7.30;99.50;;;;;;4964224;28;20028;-80
2022/02/11 13:00:42;;;;;;;6.72;2.40;;;7.50;98.40;;;;;;4962197;28;20034;-80
2022/02/11 13:03:15;;;;;;;5.43;2.03;;;7.90;97.90;;;;;;4973837;28;20037;-80
2022/02/11 13:05:51;;;;;;;8.25;2.28;;;8.30;96.40;;;;;;4966719;28;20039;-83
2022/02/11 13:08:23;;;;;;;5.00;2.10;;;8.60;95.50;;;;;;4957783;28;20135;-82
2022/02/11 13:11:05;;;;;;;3.88;2.03;;;9.10;94.90;;;;;;4958179;29;20063;-82
2022/02/11 13:13:32;;;;;;;6.03;1.92;;;9.70;91.70;;;;;;4966936;28;20031;-83
2022/02/11 13:15:59;;;;;;;6.03;2.33;;;10.10;92.10;;;;;;4965253;28;20496;-82
2022/02/11 13:18:26;;;;;;;5.50;1.77;;;10.00;91.40;;;;;;4974131;28;20479;-81
2022/02/11 13:20:53;;;;;;;6.55;2.10;;;10.00;90.20;;;;;;4971821;28;20383;-82
2022/02/11 13:23:24;;;;;;;8.15;1.95;;;10.10;88.60;;;;;;4968875;28;20032;-78
2022/02/11 13:25:51;;;;;;;3.70;2.10;;;9.90;90.30;;;;;;4967086;28;20073;-78
2022/02/11 13:28:18;;;;;;;3.85;1.35;;;9.90;91.40;;;;;;4970046;28;20037;-78
2022/02/11 13:30:47;;;;;;;8.30;2.13;;;10.00;89.90;;;;;;4961685;28;20038;-78
2022/02/11 13:33:22;;;;;;;6.30;1.63;;;10.50;81.60;;;;;;4958175;28;20031;-78
2022/02/11 13:35:49;;;;;;;7.63;2.03;;;11.10;76.30;;;;;;4966684;28;20379;-82
2022/02/11 13:38:29;;;;;;;3.65;1.38;;;11.60;74.30;;;;;;4975298;28;20476;-79
2022/02/11 13:41:07;;;;;;;5.65;1.63;;;12.10;66.60;;;;;;4979403;28;20026;-79
2022/02/11 13:43:48;;;;;;;8.80;1.92;;;11.30;72.60;;;;;;4966595;28;20086;-80
2022/02/11 13:46:40;;;;;;;4.68;1.58;;;10.40;78.90;;;;;;4961336;28;20429;-80
2022/02/11 13:49:13;;;;;;;5.97;1.67;;;10.00;83.20;;;;;;4964505;28;20029;-79
2022/02/11 13:51:40;;;;;;;7.53;1.65;;;9.70;86.50;;;;;;4959194;28;20428;-78
2022/02/11 13:54:20;;;;;;;4.47;1.60;;;9.60;87.20;;;;;;4960332;28;20027;-79
2022/02/11 13:56:48;;;;;;;4.82;1.98;;;9.20;91.20;;;;;;4971309;28;20555;-79
2022/02/11 13:59:27;;;;;;;5.45;1.85;;;9.10;92.30;;;;;;4962245;28;20031;-77
2022/02/11 14:02:04;;;;;;;7.97;2.10;;;9.50;90.20;;;;;;4963041;28;20038;-80
2022/02/11 14:04:33;;;;;;;3.50;1.80;;;9.80;86.80;;;;;;4958023;28;20119;-82
2022/02/11 14:07:00;;;;;;;6.38;1.50;;;10.30;84.90;;;;;;4971415;28;20428;-80
2022/02/11 14:09:40;;;;;;;7.10;1.88;;;10.50;78.90;;;;;;4963311;28;20019;-80
2022/02/11 14:12:23;;;;;;;4.82;1.42;;;10.20;78.90;;;;;;4962257;28;20035;-79
2022/02/11 14:15:05;;;;;;;7.07;2.03;;;10.00;81.50;;;;;;4968761;28;20027;-79
2022/02/11 14:17:34;;;;;;;4.75;1.30;;;9.50;82.30;;;;;;4962619;28;20055;-80
2022/02/11 14:20:00;;;;;;;4.25;1.55;;;9.40;85.70;;;;;;4971381;28;20050;-79
2022/02/11 14:22:26;;;;;;;3.33;1.40;;;9.30;84.20;;;;;;4965379;28;20121;-78
2022/02/11 14:24:52;;;;;;;4.80;2.17;;;9.30;84.60;;;;;;4964637;28;20070;-79
2022/02/11 14:27:18;;;;;;;3.83;1.55;;;9.40;84.00;;;;;;4963808;28;20465;-77
2022/02/11 14:29:45;;;;;;;4.68;1.40;;;9.40;82.70;;;;;;4962342;28;20031;-78
2022/02/11 14:32:10;;;;;;;4.82;1.30;;;9.20;84.80;;;;;;4955198;29;20031;-78
2022/02/11 14:34:36;;;;;;;7.97;1.67;;;9.00;82.90;;;;;;4971666;28;20030;-78
2022/02/11 14:37:03;;;;;;;5.78;1.73;;;8.90;85.80;;;;;;4955504;28;20074;-78
2022/02/11 14:39:29;;;;;;;4.90;1.58;;;8.80;86.90;;;;;;4956158;28;20027;-78
2022/02/11 14:41:55;;;;;;;4.55;1.30;;;8.70;88.50;;;;;;4985589;28;20057;-77
2022/02/11 14:44:32;;;;;;;5.95;1.20;;;8.60;87.90;;;;;;4978415;28;20468;-78
2022/02/11 14:47:06;;;;;;;5.90;1.35;;;8.50;88.80;;;;;;4965740;28;20065;-79
2022/02/11 14:49:32;;;;;;;5.43;1.30;;;8.40;88.10;;;;;;4965157;28;20082;-80
2022/02/11 14:52:06;;;;;;;5.45;1.50;;;8.20;87.80;;;;;;4975230;28;20460;-76
2022/02/11 14:54:32;;;;;;;4.35;1.40;;;8.20;90.00;;;;;;4973063;28;20085;-80
2022/02/11 14:56:59;;;;;;;5.30;1.45;;;8.00;90.40;;;;;;4958280;28;20496;-79
2022/02/11 14:59:25;;;;;;;4.10;1.48;;;7.90;90.60;;;;;;4966961;28;20031;-80
2022/02/11 15:01:53;;;;;;;5.32;1.70;;;7.80;91.20;;;;;;4965400;28;20035;-78
2022/02/11 15:04:19;;;;;;;5.43;1.10;;;7.80;91.00;;;;;;4958904;28;20118;-76
2022/02/11 15:06:47;;;;;;;6.60;1.58;;;7.80;90.90;;;;;;4957643;28;20081;-77
2022/02/11 15:09:13;;;;;;;5.38;1.55;;;7.70;90.90;;;;;;4956021;28;20023;-77
2022/02/11 15:11:40;;;;;;;4.28;1.10;;;7.70;91.10;;;;;;4955766;28;20027;-77
2022/02/11 15:14:05;;;;;;;2.90;1.08;;;7.70;90.40;;;;;;4957158;28;20035;-77
2022/02/11 15:16:31;;;;;;;7.18;1.35;;;7.60;90.40;;;;;;4956883;28;20078;-77
2022/02/11 15:18:57;;;;;;;3.85;1.30;;;7.60;90.20;;;;;;4973074;28;20186;-76
2022/02/11 15:21:23;;;;;;;5.50;1.50;;;7.50;90.70;;;;;;4966308;28;20468;-77
2022/02/11 15:23:49;;;;;;;7.60;1.50;;;7.50;91.20;;;;;;4953631;28;20543;-79
2022/02/11 15:26:17;;;;;;;5.18;1.42;;;7.50;90.90;;;;;;4954447;28;20066;-78
2022/02/11 15:28:43;;;;;;;5.45;1.60;;;7.50;91.30;;;;;;4969692;28;20085;-75
2022/02/11 15:31:12;;;;;;;24.83;9.88;;;7.50;91.50;;;;;;4957640;28;20043;-75
2022/02/11 15:33:40;;;;;;;34.80;15.80;;;7.60;91.20;;;;;;4958211;28;20026;-76
2022/02/11 15:36:07;;;;;;;95.28;45.45;;;7.60;91.60;;;;;;4963920;28;20391;-76
2022/02/11 15:38:33;;;;;;;11.15;5.57;;;7.60;92.20;;;;;;4969167;28;20034;-75
2022/02/11 15:40:58;;;;;;;7.80;3.55;;;7.60;91.70;;;;;;4965837;28;20361;-77
2022/02/11 15:43:24;;;;;;;7.18;2.47;;;7.60;93.30;;;;;;4965763;28;20027;-77
2022/02/11 15:45:50;;;;;;;5.13;1.85;;;7.40;93.30;;;;;;4964368;28;20043;-78
2022/02/11 15:48:16;;;;;;;4.38;1.60;;;7.30;92.80;;;;;;4959023;28;20082;-77
2022/02/11 15:50:42;;;;;;;4.00;1.60;;;7.30;93.90;;;;;;4970018;28;20054;-77
2022/02/11 15:53:09;;;;;;;4.03;1.40;;;7.30;94.30;;;;;;4959758;28;20476;-78
2022/02/11 15:55:35;;;;;;;7.18;1.80;;;7.40;96.30;;;;;;4963561;28;20038;-78
2022/02/11 15:58:01;;;;;;;7.57;1.92;;;7.40;97.50;;;;;;4966393;28;20027;-77
2022/02/11 16:00:26;;;;;;;7.90;2.13;;;7.30;98.20;;;;;;4973819;28;20034;-77
2022/02/11 16:02:52;;;;;;;7.33;1.93;;;7.30;98.30;;;;;;4953900;28;20029;-77
2022/02/11 16:05:18;;;;;;;4.28;1.30;;;7.30;98.70;;;;;;4960903;28;20138;-78
2022/02/11 16:07:43;;;;;;;5.60;1.80;;;7.20;98.50;;;;;;4962599;28;20031;-77
2022/02/11 16:10:10;;;;;;;5.00;1.98;;;7.20;98.90;;;;;;4967446;28;20031;-77
2022/02/11 16:12:36;;;;;;;7.32;2.55;;;7.20;98.70;;;;;;4971185;28;20085;-77
2022/02/11 16:15:03;;;;;;;5.50;1.73;;;7.20;97.90;;;;;;4958358;28;20391;-76
2022/02/11 16:17:32;;;;;;;3.33;1.92;;;7.10;98.20;;;;;;4960505;28;20031;-80
2022/02/11 16:19:58;;;;;;;4.38;2.55;;;7.00;97.90;;;;;;4960262;28;20068;-78
2022/02/11 16:22:26;;;;;;;8.95;2.20;;;7.00;98.00;;;;;;4969345;28;20027;-78
2022/02/11 16:24:52;;;;;;;5.03;2.33;;;7.10;98.30;;;;;;4956130;28;20050;-78
2022/02/11 16:27:18;;;;;;;4.20;1.73;;;7.00;98.90;;;;;;4972733;28;20042;-77
2022/02/11 16:29:45;;;;;;;7.72;1.77;;;6.80;99.70;;;;;;4962372;28;20023;-78
2022/02/11 16:32:11;;;;;;;6.17;1.83;;;6.80;99.90;;;;;;4968141;28;20484;-77
2022/02/11 16:34:37;;;;;;;6.93;2.25;;;6.80;99.90;;;;;;4956564;28;20536;-77
2022/02/11 16:37:04;;;;;;;9.85;2.33;;;6.70;99.90;;;;;;4968859;28;20047;-77
2022/02/11 16:39:29;;;;;;;10.25;2.47;;;6.70;99.90;;;;;;4962290;28;20041;-79
2022/02/11 16:41:56;;;;;;;6.25;2.15;;;6.70;99.90;;;;;;4967912;28;20035;-78
2022/02/11 16:44:22;;;;;;;7.65;2.20;;;6.70;99.90;;;;;;4956306;28;20424;-78
2022/02/11 16:46:48;;;;;;;3.53;2.00;;;6.60;99.90;;;;;;4962471;28;20388;-78
2022/02/11 16:49:17;;;;;;;6.30;2.25;;;6.60;99.90;;;;;;4974139;28;20384;-78
2022/02/11 16:51:44;;;;;;;5.03;2.13;;;6.50;99.90;;;;;;4971415;28;20030;-77
2022/02/11 16:54:10;;;;;;;5.45;2.10;;;6.40;99.90;;;;;;4957087;28;20077;-78
2022/02/11 16:56:36;;;;;;;5.50;2.23;;;6.50;99.90;;;;;;4971431;28;20063;-80
2022/02/11 16:59:01;;;;;;;6.70;2.30;;;6.40;99.90;;;;;;4970529;28;20110;-77